createdAt,value
2023-05-05T05:01:08.965Z,3.64
2023-05-05T05:02:09.009Z,2.92
2023-05-05T05:03:08.984Z,2.82
2023-05-05T05:04:08.946Z,2.60
2023-05-05T05:05:08.943Z,2.79
2023-05-05T05:06:08.959Z,3.05
2023-05-05T05:07:08.947Z,3.08
2023-05-05T05:08:08.920Z,3.14
2023-05-05T05:09:08.904Z,3.37
2023-05-05T05:10:09.167Z,2.60
2023-05-05T05:11:08.888Z,2.62
2023-05-05T05:12:08.925Z,2.85
2023-05-05T05:13:10.594Z,2.88
2023-05-05T05:14:08.895Z,3.07
2023-05-05T05:15:08.864Z,2.64
2023-05-05T05:16:08.940Z,2.98
2023-05-05T05:17:08.892Z,2.85
2023-05-05T05:18:08.885Z,2.59
2023-05-05T05:19:08.885Z,2.35
2023-05-05T05:20:09.167Z,2.80
2023-05-05T05:21:08.838Z,2.75
2023-05-05T05:22:08.843Z,2.66
2023-05-05T05:23:08.837Z,2.67
2023-05-05T05:24:08.848Z,2.54
2023-05-05T05:25:08.795Z,2.95
2023-05-05T05:26:08.814Z,3.01
2023-05-05T05:27:10.154Z,2.66
2023-05-05T05:28:10.150Z,2.66
2023-05-05T05:29:08.766Z,2.99
2023-05-05T05:30:08.945Z,3.25
2023-05-05T05:31:08.747Z,3.04
2023-05-05T05:32:08.901Z,2.93
2023-05-05T05:33:08.826Z,2.79
2023-05-05T05:34:10.246Z,2.79
2023-05-05T05:35:08.899Z,2.79
2023-05-05T05:36:08.901Z,2.77
2023-05-05T05:37:08.886Z,2.71
2023-05-05T05:38:08.860Z,3.23
2023-05-05T05:39:08.892Z,2.81
2023-05-05T05:40:09.003Z,3.72
2023-05-05T05:41:08.936Z,2.69
2023-05-05T05:42:09.002Z,2.88
2023-05-05T05:43:08.977Z,3.50
2023-05-05T05:44:08.904Z,3.05
2023-05-05T05:45:09.079Z,3.66
2023-05-05T05:46:09.297Z,3.85
2023-05-05T05:47:09.775Z,3.48
2023-05-05T05:48:09.317Z,3.09
2023-05-05T05:49:09.034Z,3.69
2023-05-05T05:50:09.214Z,3.26
2023-05-05T05:51:08.940Z,3.33
2023-05-05T05:52:09.051Z,3.60
2023-05-05T05:53:08.938Z,3.73
2023-05-05T05:54:08.927Z,4.14
2023-05-05T05:55:09.062Z,3.81
2023-05-05T05:56:09.114Z,2.91
2023-05-05T05:57:09.102Z,3.56
2023-05-05T05:58:09.207Z,4.52
2023-05-05T05:59:09.252Z,4.56
2023-05-05T06:00:09.458Z,4.23
2023-05-05T06:01:09.481Z,3.93
2023-05-05T06:02:09.270Z,4.68
2023-05-05T06:03:09.356Z,3.87
2023-05-05T06:04:09.368Z,4.16
2023-05-05T06:05:09.310Z,4.50
2023-05-05T06:06:09.297Z,3.85
2023-05-05T06:07:09.332Z,4.41
2023-05-05T06:08:09.327Z,3.65
2023-05-05T06:09:09.321Z,4.30
2023-05-05T06:10:25.640Z,3.46
2023-05-05T06:11:10.358Z,3.97
2023-05-05T06:12:09.440Z,3.56
2023-05-05T06:13:09.412Z,4.08
2023-05-05T06:14:09.311Z,3.58
2023-05-05T06:15:09.305Z,3.53
2023-05-05T06:16:09.346Z,3.67
2023-05-05T06:17:09.303Z,3.61
2023-05-05T06:18:09.310Z,3.64
2023-05-05T06:19:09.374Z,3.54
2023-05-05T06:20:09.413Z,3.75
2023-05-05T06:21:09.281Z,4.02
2023-05-05T06:22:09.291Z,3.43
2023-05-05T06:23:09.236Z,3.45
2023-05-05T06:24:09.311Z,3.45
2023-05-05T06:25:09.312Z,3.04
2023-05-05T06:26:09.332Z,3.41
2023-05-05T06:27:09.243Z,3.35
2023-05-05T06:28:09.248Z,3.20
2023-05-05T06:29:11.751Z,3.36
2023-05-05T06:30:09.642Z,3.37
2023-05-05T06:31:09.653Z,3.18
2023-05-05T06:32:09.425Z,3.36
2023-05-05T06:33:09.414Z,3.34
2023-05-05T06:34:09.246Z,3.21
2023-05-05T06:35:09.227Z,3.43
2023-05-05T06:36:09.227Z,3.54
2023-05-05T06:37:09.350Z,3.27
2023-05-05T06:38:09.212Z,3.41
2023-05-05T06:39:09.166Z,2.76
2023-05-05T06:40:09.535Z,3.25
2023-05-05T06:41:09.199Z,3.06
2023-05-05T06:42:09.153Z,2.90
2023-05-05T06:43:09.166Z,3.44
2023-05-05T06:44:09.114Z,3.18
2023-05-05T06:45:09.149Z,3.52
2023-05-05T06:46:09.136Z,3.16
2023-05-05T06:47:09.129Z,3.46
2023-05-05T06:48:09.196Z,3.07
2023-05-05T06:49:09.096Z,2.96
2023-05-05T06:50:10.332Z,2.50
2023-05-05T06:51:09.153Z,3.14
2023-05-05T06:52:09.081Z,2.80
2023-05-05T06:53:09.244Z,2.84
2023-05-05T06:54:09.108Z,3.30
2023-05-05T06:55:09.043Z,3.40
2023-05-05T06:56:09.082Z,2.90
2023-05-05T06:57:09.081Z,2.85
2023-05-05T06:58:09.058Z,2.90
2023-05-05T06:59:09.044Z,3.14
2023-05-05T07:00:09.166Z,3.00
2023-05-05T07:01:09.093Z,3.02
2023-05-05T07:02:09.572Z,2.70
2023-05-05T07:03:09.094Z,2.59
2023-05-05T07:04:09.208Z,2.67
2023-05-05T07:05:13.776Z,2.84
2023-05-05T07:06:08.992Z,2.99
2023-05-05T07:07:08.959Z,2.70
2023-05-05T07:08:08.973Z,3.08
2023-05-05T07:09:09.123Z,2.62
2023-05-05T07:10:09.175Z,2.59
2023-05-05T07:11:08.949Z,2.59
2023-05-05T07:12:08.956Z,2.96
2023-05-05T07:13:09.098Z,2.81
2023-05-05T07:14:08.968Z,2.72
2023-05-05T07:15:23.419Z,2.81
2023-05-05T07:16:10.059Z,2.67
2023-05-05T07:17:10.607Z,2.67
2023-05-05T07:18:08.953Z,2.76
2023-05-05T07:19:09.017Z,3.19
2023-05-05T07:20:09.260Z,2.90
2023-05-05T07:21:09.183Z,2.54
2023-05-05T07:22:08.884Z,3.10
2023-05-05T07:23:08.932Z,2.52
2023-05-05T07:24:08.885Z,2.74
2023-05-05T07:25:08.927Z,2.60
2023-05-05T07:26:08.975Z,2.72
2023-05-05T07:27:08.995Z,2.76
2023-05-05T07:28:09.152Z,2.05
2023-05-05T07:29:09.279Z,2.74
2023-05-05T07:30:13.028Z,2.61
2023-05-05T07:31:10.091Z,2.64
2023-05-05T07:32:09.074Z,2.66
2023-05-05T07:33:09.173Z,3.07
2023-05-05T07:34:09.009Z,2.38
2023-05-05T07:35:09.077Z,2.54
2023-05-05T07:36:09.009Z,2.80
2023-05-05T07:37:09.040Z,2.69
2023-05-05T07:38:10.938Z,2.66
2023-05-05T07:39:10.039Z,2.49
2023-05-05T07:40:10.673Z,2.75
2023-05-05T07:41:09.161Z,2.83
2023-05-05T07:42:09.216Z,2.07
2023-05-05T07:43:09.258Z,2.60
2023-05-05T07:44:09.547Z,2.24
2023-05-05T07:45:09.424Z,2.88
2023-05-05T07:46:09.425Z,2.60
2023-05-05T07:47:17.699Z,2.61
2023-05-05T07:48:09.389Z,2.63
2023-05-05T07:49:09.358Z,2.69
2023-05-05T07:50:09.661Z,2.29
2023-05-05T07:51:09.457Z,2.79
2023-05-05T07:52:09.480Z,2.10
2023-05-05T07:53:14.324Z,2.54
2023-05-05T07:54:10.555Z,2.59
2023-05-05T07:55:09.536Z,3.12
2023-05-05T07:56:09.488Z,2.52
2023-05-05T07:57:09.541Z,2.44
2023-05-05T07:58:09.548Z,2.73
2023-05-05T07:59:09.482Z,2.57
2023-05-05T08:00:09.900Z,2.88
2023-05-05T08:01:09.523Z,2.62
2023-05-05T08:02:09.497Z,2.74
2023-05-05T08:03:11.704Z,3.15
2023-05-05T08:04:09.747Z,2.82
2023-05-05T08:05:10.078Z,2.60
2023-05-05T08:06:09.729Z,2.62
2023-05-05T08:07:09.727Z,2.61
2023-05-05T08:08:09.753Z,2.84
2023-05-05T08:09:09.761Z,2.64
2023-05-05T08:10:09.780Z,2.75
2023-05-05T08:11:09.795Z,2.73
2023-05-05T08:12:09.803Z,2.67
2023-05-05T08:13:10.037Z,2.81
2023-05-05T08:14:09.808Z,2.96
2023-05-05T08:15:10.142Z,3.05
2023-05-05T08:16:09.963Z,2.79
2023-05-05T08:17:09.882Z,3.01
2023-05-05T08:18:09.887Z,2.81
2023-05-05T08:19:17.838Z,2.83
2023-05-05T08:20:10.872Z,2.55
2023-05-05T08:21:09.893Z,2.90
2023-05-05T08:22:09.869Z,3.25
2023-05-05T08:23:09.861Z,2.59
2023-05-05T08:24:09.842Z,2.74
2023-05-05T08:25:09.983Z,3.06
2023-05-05T08:26:09.833Z,2.91
2023-05-05T08:27:09.849Z,2.88
2023-05-05T08:28:09.822Z,3.32
2023-05-05T08:29:09.875Z,2.87
2023-05-05T08:30:09.823Z,3.08
2023-05-05T08:31:09.829Z,2.56
2023-05-05T08:32:09.776Z,2.91
2023-05-05T08:33:09.817Z,2.85
2023-05-05T08:34:09.785Z,3.25
2023-05-05T08:35:10.077Z,2.77
2023-05-05T08:36:09.796Z,2.56
2023-05-05T08:37:09.757Z,2.19
2023-05-05T08:38:09.761Z,3.00
2023-05-05T08:39:09.728Z,3.72
2023-05-05T08:40:09.729Z,2.77
2023-05-05T08:41:09.758Z,3.16
2023-05-05T08:42:09.743Z,2.95
2023-05-05T08:43:09.721Z,3.20
2023-05-05T08:44:09.777Z,3.71
2023-05-05T08:45:10.672Z,3.19
2023-05-05T08:46:09.707Z,3.19
2023-05-05T08:47:09.739Z,3.16
2023-05-05T08:48:09.709Z,3.24
2023-05-05T08:49:09.679Z,3.30
2023-05-05T08:50:09.659Z,3.35
2023-05-05T08:51:09.691Z,3.15
2023-05-05T08:52:09.735Z,3.05
2023-05-05T08:53:09.769Z,3.35
2023-05-05T08:54:09.693Z,3.17
2023-05-05T08:55:09.952Z,3.29
2023-05-05T08:56:09.771Z,3.42
2023-05-05T08:57:09.788Z,2.85
2023-05-05T08:58:09.783Z,3.35
2023-05-05T08:59:09.778Z,3.85
2023-05-05T09:00:09.772Z,3.67
2023-05-05T09:01:09.905Z,2.87
2023-05-05T09:02:09.822Z,3.55
2023-05-05T09:03:09.858Z,3.04
2023-05-05T09:04:09.806Z,3.02
2023-05-05T09:05:09.992Z,3.36
2023-05-05T09:06:09.795Z,3.17
2023-05-05T09:07:09.764Z,2.74
2023-05-05T09:08:09.796Z,2.91
2023-05-05T09:09:09.769Z,3.32
2023-05-05T09:10:09.807Z,3.35
2023-05-05T09:11:09.835Z,2.93
2023-05-05T09:12:09.814Z,2.73
2023-05-05T09:13:09.853Z,2.67
2023-05-05T09:14:09.806Z,2.82
2023-05-05T09:15:09.970Z,2.99
2023-05-05T09:16:09.802Z,2.84
2023-05-05T09:17:09.947Z,3.15
2023-05-05T09:18:09.896Z,2.77
2023-05-05T09:19:09.848Z,2.41
2023-05-05T09:20:09.804Z,2.32
2023-05-05T09:21:09.840Z,3.00
2023-05-05T09:22:09.825Z,2.66
2023-05-05T09:23:09.849Z,2.76
2023-05-05T09:24:09.958Z,2.73
2023-05-05T09:25:10.620Z,2.17
2023-05-05T09:26:09.877Z,2.68
2023-05-05T09:27:09.820Z,2.80
2023-05-05T09:28:09.865Z,2.85
2023-05-05T09:29:09.813Z,3.65
2023-05-05T09:30:09.879Z,2.69
2023-05-05T09:31:09.908Z,2.67
2023-05-05T09:32:09.844Z,2.69
2023-05-05T09:33:10.006Z,2.62
2023-05-05T09:34:09.859Z,2.45
2023-05-05T09:35:09.996Z,2.42
2023-05-05T09:36:09.920Z,2.94
2023-05-05T09:37:09.949Z,2.62
2023-05-05T09:38:09.996Z,2.92
2023-05-05T09:39:10.082Z,2.71
2023-05-05T09:40:10.057Z,2.18
2023-05-05T09:41:10.149Z,2.25
2023-05-05T09:42:10.220Z,2.63
2023-05-05T09:43:10.227Z,2.26
2023-05-05T09:44:10.281Z,2.46
2023-05-05T09:45:10.355Z,2.73
2023-05-05T09:46:10.468Z,2.37
2023-05-05T09:47:25.993Z,2.45
2023-05-05T09:48:11.551Z,2.72
2023-05-05T09:49:10.516Z,2.70
2023-05-05T09:50:10.521Z,2.13
2023-05-05T09:51:10.407Z,2.30
2023-05-05T09:52:10.416Z,2.10
2023-05-05T09:53:10.436Z,2.88
2023-05-05T09:54:10.409Z,2.19
2023-05-05T09:55:10.384Z,2.48
2023-05-05T09:56:10.431Z,2.22
2023-05-05T09:57:10.433Z,2.68
2023-05-05T09:58:10.564Z,2.71
2023-05-05T09:59:10.559Z,2.27
2023-05-05T10:00:10.724Z,2.29
2023-05-05T10:01:10.738Z,2.54
2023-05-05T10:02:10.701Z,2.13
2023-05-05T10:03:10.753Z,1.98
2023-05-05T10:04:10.816Z,1.96
2023-05-05T10:05:10.970Z,2.31
2023-05-05T10:06:10.907Z,2.90
2023-05-05T10:07:10.961Z,2.48
2023-05-05T10:08:11.001Z,2.29
2023-05-05T10:09:11.113Z,2.64
2023-05-05T10:10:11.290Z,2.31
2023-05-05T10:11:11.209Z,2.31
2023-05-05T10:12:11.279Z,2.43
2023-05-05T10:13:11.388Z,2.90
2023-05-05T10:14:11.337Z,2.42
2023-05-05T10:15:11.309Z,2.50
2023-05-05T10:16:11.351Z,2.66
2023-05-05T10:17:11.353Z,2.80
2023-05-05T10:18:11.332Z,2.90
2023-05-05T10:19:11.325Z,2.73
2023-05-05T10:20:11.486Z,3.59
2023-05-05T10:21:11.424Z,2.24
2023-05-05T10:22:11.389Z,2.92
2023-05-05T10:23:11.412Z,2.81
2023-05-05T10:24:11.476Z,3.05
2023-05-05T10:25:11.586Z,2.71
2023-05-05T10:26:11.537Z,3.14
2023-05-05T10:27:12.737Z,2.83
2023-05-05T10:28:11.513Z,2.76
2023-05-05T10:29:11.472Z,2.44
2023-05-05T10:30:11.520Z,2.57
2023-05-05T10:31:24.421Z,3.07
2023-05-05T10:32:37.021Z,3.11
2023-05-05T10:33:30.419Z,3.03
2023-05-05T10:34:12.575Z,2.67
2023-05-05T10:35:11.542Z,3.55
2023-05-05T10:36:11.454Z,2.63
2023-05-05T10:37:11.638Z,2.77
2023-05-05T10:38:11.494Z,2.96
2023-05-05T10:39:11.421Z,3.24
2023-05-05T10:40:11.597Z,2.69
2023-05-05T10:41:11.393Z,2.17
2023-05-05T10:42:11.398Z,2.45
2023-05-05T10:43:11.371Z,3.19
2023-05-05T10:44:11.384Z,2.64
2023-05-05T10:45:11.390Z,2.90
2023-05-05T10:46:11.408Z,2.60
2023-05-05T10:47:11.342Z,2.38
2023-05-05T10:48:11.412Z,2.25
2023-05-05T10:49:13.234Z,2.46
2023-05-05T10:50:11.408Z,2.82
2023-05-05T10:51:11.312Z,2.34
2023-05-05T10:52:11.309Z,2.87
2023-05-05T10:53:11.425Z,2.65
2023-05-05T10:54:11.449Z,2.37
2023-05-05T10:55:11.448Z,2.66
2023-05-05T10:56:11.482Z,2.49
2023-05-05T10:57:11.580Z,2.42
2023-05-05T10:58:11.599Z,2.24
2023-05-05T10:59:11.691Z,2.52
2023-05-05T11:00:12.573Z,2.30
2023-05-05T11:01:11.863Z,2.24
2023-05-05T11:02:11.833Z,2.21
2023-05-05T11:03:11.956Z,2.51
2023-05-05T11:04:11.969Z,2.46
2023-05-05T11:05:11.997Z,2.50
2023-05-05T11:06:12.051Z,2.74
2023-05-05T11:07:15.045Z,2.60
2023-05-05T11:08:12.091Z,2.42
2023-05-05T11:09:12.174Z,3.06
2023-05-05T11:10:12.285Z,3.08
2023-05-05T11:11:12.100Z,2.17
2023-05-05T11:12:12.077Z,2.57
2023-05-05T11:13:12.099Z,2.49
2023-05-05T11:14:12.059Z,2.83
2023-05-05T11:15:12.097Z,2.70
2023-05-05T11:16:12.130Z,3.11
2023-05-05T11:17:12.039Z,2.87
2023-05-05T11:18:12.109Z,2.79
2023-05-05T11:19:12.004Z,3.16
2023-05-05T11:20:12.009Z,3.00
2023-05-05T11:21:12.020Z,2.64
2023-05-05T11:22:11.992Z,2.95
2023-05-05T11:23:13.427Z,2.85
2023-05-05T11:24:11.979Z,3.06
2023-05-05T11:25:12.075Z,3.05
2023-05-05T11:26:11.989Z,3.31
2023-05-05T11:27:12.016Z,3.21
2023-05-05T11:28:12.018Z,2.93
2023-05-05T11:29:11.933Z,2.92
2023-05-05T11:30:12.113Z,3.57
2023-05-05T11:31:12.029Z,2.91
2023-05-05T11:32:11.921Z,3.16
2023-05-05T11:33:11.994Z,2.65
2023-05-05T11:34:11.911Z,2.95
2023-05-05T11:35:11.898Z,2.99
2023-05-05T11:36:11.893Z,3.34
2023-05-05T11:37:11.917Z,3.39
2023-05-05T11:38:11.906Z,3.02
2023-05-05T11:39:11.927Z,2.82
2023-05-05T11:40:11.951Z,3.32
2023-05-05T11:41:11.936Z,2.94
2023-05-05T11:42:11.879Z,2.97
2023-05-05T11:43:11.856Z,3.22
2023-05-05T11:44:11.860Z,3.13
2023-05-05T11:45:11.872Z,3.10
2023-05-05T11:46:11.903Z,2.67
2023-05-05T11:47:11.826Z,2.67
2023-05-05T11:48:11.874Z,2.98
2023-05-05T11:49:11.835Z,2.85
2023-05-05T11:50:11.851Z,2.90
2023-05-05T11:51:11.846Z,3.05
2023-05-05T11:52:11.789Z,2.68
2023-05-05T11:53:11.779Z,3.07
2023-05-05T11:54:11.798Z,3.33
2023-05-05T11:55:11.767Z,2.79
2023-05-05T11:56:11.784Z,2.75
2023-05-05T11:57:11.827Z,2.94
2023-05-05T11:58:11.725Z,3.23
2023-05-05T11:59:11.736Z,2.26
2023-05-05T12:00:11.894Z,3.05
2023-05-05T12:01:11.756Z,2.91
2023-05-05T12:02:11.738Z,2.73
2023-05-05T12:03:11.831Z,3.07
2023-05-05T12:04:11.820Z,2.44
2023-05-05T12:05:11.719Z,2.70
2023-05-05T12:06:11.716Z,2.30
2023-05-05T12:07:11.691Z,3.02
2023-05-05T12:08:11.720Z,2.97
2023-05-05T12:09:11.682Z,2.72
2023-05-05T12:10:11.749Z,2.42
2023-05-05T12:11:11.771Z,2.57
2023-05-05T12:12:11.781Z,2.87
2023-05-05T12:13:11.941Z,3.07
2023-05-05T12:14:11.834Z,2.83
2023-05-05T12:15:11.906Z,2.79
2023-05-05T12:16:11.960Z,2.83
2023-05-05T12:17:12.029Z,2.99
2023-05-05T12:18:12.042Z,2.58
2023-05-05T12:19:12.134Z,3.01
2023-05-05T12:20:12.413Z,2.75
2023-05-05T12:21:12.151Z,3.26
2023-05-05T12:22:12.209Z,2.95
2023-05-05T12:23:12.234Z,2.88
2023-05-05T12:24:12.345Z,2.84
2023-05-05T12:25:12.299Z,2.84
2023-05-05T12:26:12.342Z,2.93
2023-05-05T12:27:12.355Z,2.72
2023-05-05T12:28:12.448Z,2.89
2023-05-05T12:29:12.501Z,2.88
2023-05-05T12:30:12.498Z,2.54
2023-05-05T12:31:12.568Z,2.63
2023-05-05T12:32:12.649Z,2.44
2023-05-05T12:33:12.624Z,2.40
2023-05-05T12:34:12.654Z,2.43
2023-05-05T12:35:12.731Z,2.34
2023-05-05T12:36:12.757Z,2.34
2023-05-05T12:37:12.801Z,2.40
2023-05-05T12:38:12.842Z,2.42
2023-05-05T12:39:12.852Z,2.42
2023-05-05T12:40:12.916Z,2.61
2023-05-05T12:41:13.017Z,2.24
2023-05-05T12:42:12.986Z,2.65
2023-05-05T12:43:13.060Z,2.66
2023-05-05T12:44:13.072Z,2.21
2023-05-05T12:45:13.185Z,2.42
2023-05-05T12:46:13.184Z,1.94
2023-05-05T12:47:13.189Z,2.64
2023-05-05T12:48:13.193Z,2.54
2023-05-05T12:49:13.277Z,2.69
2023-05-05T12:50:13.293Z,2.51
2023-05-05T12:51:13.323Z,2.49
2023-05-05T12:52:13.364Z,2.23
2023-05-05T12:53:13.392Z,2.46
2023-05-05T12:54:13.426Z,2.56
2023-05-05T12:55:13.496Z,2.55
2023-05-05T12:56:13.490Z,2.41
2023-05-05T12:57:13.508Z,4.03
2023-05-05T12:58:13.549Z,4.97
2023-05-05T12:59:13.588Z,3.56
2023-05-05T13:00:13.633Z,3.87
2023-05-05T13:01:13.776Z,3.47
2023-05-05T13:02:13.699Z,3.44
2023-05-05T13:03:13.761Z,3.32
2023-05-05T13:04:13.804Z,2.89
2023-05-05T13:05:13.751Z,3.00
2023-05-05T13:06:13.783Z,3.18
2023-05-05T13:07:13.881Z,3.41
2023-05-05T13:08:13.844Z,3.68
2023-05-05T13:09:13.878Z,3.24
2023-05-05T13:10:13.914Z,3.07
2023-05-05T13:11:13.958Z,3.31
2023-05-05T13:12:13.976Z,3.92
2023-05-05T13:13:14.110Z,3.21
2023-05-05T13:14:14.019Z,3.11
2023-05-05T13:15:14.122Z,3.65
2023-05-05T13:16:14.140Z,3.71
2023-05-05T13:17:14.112Z,3.58
2023-05-05T13:18:14.089Z,3.77
2023-05-05T13:19:14.128Z,3.27
2023-05-05T13:20:14.178Z,3.17
2023-05-05T13:21:14.232Z,3.39
2023-05-05T13:22:14.239Z,3.05
2023-05-05T13:23:14.229Z,3.18
2023-05-05T13:25:14.214Z,3.16
2023-05-05T13:26:14.210Z,2.83
2023-05-05T13:27:14.303Z,2.93
2023-05-05T13:28:14.216Z,3.55
2023-05-05T13:29:14.210Z,2.78
2023-05-05T13:30:14.212Z,3.28
2023-05-05T13:31:14.284Z,3.28
2023-05-05T13:32:14.200Z,2.89
2023-05-05T13:33:14.239Z,3.18
2023-05-05T13:34:14.198Z,2.67
2023-05-05T13:35:16.190Z,2.93
2023-05-05T13:36:14.149Z,2.80
2023-05-05T13:37:14.170Z,2.69
2023-05-05T13:38:14.202Z,3.04
2023-05-05T13:39:14.212Z,3.59
2023-05-05T13:40:14.226Z,2.90
2023-05-05T13:41:14.269Z,2.91
2023-05-05T13:42:14.251Z,3.20
2023-05-05T13:43:14.268Z,3.17
2023-05-05T13:44:14.271Z,2.68
2023-05-05T13:45:14.312Z,2.84
2023-05-05T13:46:19.753Z,2.60
2023-05-05T13:47:15.392Z,3.03
2023-05-05T13:48:14.276Z,3.95
2023-05-05T13:49:14.363Z,2.97
2023-05-05T13:50:14.261Z,2.46
2023-05-05T13:51:14.246Z,3.07
2023-05-05T13:52:14.223Z,2.91
2023-05-05T13:53:14.237Z,2.64
2023-05-05T13:54:14.213Z,3.09
2023-05-05T13:55:14.228Z,3.12
2023-05-05T13:56:14.215Z,2.67
2023-05-05T13:57:14.203Z,2.72
2023-05-05T13:58:14.241Z,2.61
2023-05-05T13:59:14.230Z,2.52
2023-05-05T14:00:14.220Z,2.84
2023-05-05T14:01:14.249Z,2.80
2023-05-05T14:02:14.211Z,2.41
2023-05-05T14:03:14.175Z,2.63
2023-05-05T14:04:14.254Z,2.84
2023-05-05T14:05:14.210Z,2.79
2023-05-05T14:06:14.123Z,2.70
2023-05-05T14:07:14.240Z,2.71
2023-05-05T14:08:14.160Z,2.52
2023-05-05T14:09:14.135Z,3.10
2023-05-05T14:10:14.137Z,3.15
2023-05-05T14:11:14.113Z,2.85
2023-05-05T14:12:14.098Z,2.78
2023-05-05T14:13:14.202Z,2.87
2023-05-05T14:14:14.099Z,2.97
2023-05-05T14:15:14.091Z,2.76
2023-05-05T14:16:14.147Z,3.19
2023-05-05T14:17:14.083Z,2.55
2023-05-05T14:18:14.103Z,2.64
2023-05-05T14:19:14.056Z,2.58
2023-05-05T14:20:14.081Z,2.62
2023-05-05T14:21:14.123Z,3.01
2023-05-05T14:22:14.068Z,2.67
2023-05-05T14:23:14.037Z,3.07
2023-05-05T14:24:14.078Z,3.15
2023-05-05T14:25:14.013Z,3.14
2023-05-05T14:26:14.038Z,3.02
2023-05-05T14:27:14.030Z,2.91
2023-05-05T14:28:14.002Z,2.97
2023-05-05T14:29:13.998Z,2.80
2023-05-05T14:30:14.036Z,2.83
2023-05-05T14:31:14.012Z,3.10
2023-05-05T14:32:14.051Z,2.92
2023-05-05T14:33:13.958Z,3.18
2023-05-05T14:34:13.971Z,2.99
2023-05-05T14:35:13.955Z,3.35
2023-05-05T14:36:13.956Z,3.27
2023-05-05T14:37:14.009Z,3.07
2023-05-05T14:38:14.005Z,3.45
2023-05-05T14:39:13.951Z,3.20
2023-05-05T14:40:13.955Z,3.00
2023-05-05T14:41:13.950Z,3.23
2023-05-05T14:42:13.947Z,2.71
2023-05-05T14:43:14.034Z,2.98
2023-05-05T14:44:14.041Z,2.84
2023-05-05T14:45:14.001Z,3.00
2023-05-05T14:46:14.045Z,2.96
2023-05-05T14:47:14.031Z,3.21
2023-05-05T14:48:14.012Z,2.83
2023-05-05T14:49:14.050Z,3.51
2023-05-05T14:50:14.241Z,2.89
2023-05-05T14:51:14.065Z,3.14
2023-05-05T14:52:14.102Z,2.92
2023-05-05T14:53:14.156Z,3.35
2023-05-05T14:54:26.948Z,3.50
2023-05-05T14:55:15.121Z,3.27
2023-05-05T14:56:14.289Z,3.19
2023-05-05T14:57:14.080Z,3.38
2023-05-05T14:58:14.065Z,3.20
2023-05-05T14:59:14.052Z,2.80
2023-05-05T15:00:14.028Z,3.42
2023-05-05T15:01:14.074Z,3.13
2023-05-05T15:02:14.066Z,3.07
2023-05-05T15:03:14.130Z,3.48
2023-05-05T15:04:14.034Z,3.16
2023-05-05T15:05:14.020Z,3.14
2023-05-05T15:06:14.030Z,3.35
2023-05-05T15:07:14.023Z,3.45
2023-05-05T15:08:14.039Z,3.21
2023-05-05T15:09:14.088Z,2.92
2023-05-05T15:10:14.012Z,3.14
2023-05-05T15:11:13.978Z,2.83
2023-05-05T15:12:13.974Z,3.50
2023-05-05T15:13:14.123Z,3.11
2023-05-05T15:14:13.987Z,3.19
2023-05-05T15:15:13.958Z,2.70
2023-05-05T15:16:14.021Z,2.80
2023-05-05T15:17:13.945Z,3.26
2023-05-05T15:18:13.914Z,3.17
2023-05-05T15:19:13.912Z,2.66
2023-05-05T15:20:13.920Z,3.03
2023-05-05T15:21:13.918Z,3.56
2023-05-05T15:22:13.914Z,2.58
2023-05-05T15:23:13.953Z,3.31
2023-05-05T15:24:13.922Z,3.16
2023-05-05T15:25:13.936Z,2.75
2023-05-05T15:26:13.960Z,2.85
2023-05-05T15:27:13.945Z,3.28
2023-05-05T15:28:13.950Z,2.72
2023-05-05T15:29:14.000Z,3.13
2023-05-05T15:30:13.964Z,3.35
2023-05-05T15:31:13.957Z,2.92
2023-05-05T15:32:13.960Z,3.57
2023-05-05T15:33:13.990Z,3.14
2023-05-05T15:34:13.998Z,3.35
2023-05-05T15:35:14.012Z,3.28
2023-05-05T15:36:14.036Z,3.47
2023-05-05T15:37:14.059Z,2.97
2023-05-05T15:38:14.081Z,3.20
2023-05-05T15:39:14.018Z,3.50
2023-05-05T15:40:14.059Z,3.08
2023-05-05T15:41:14.237Z,3.21
2023-05-05T15:42:14.081Z,3.38
2023-05-05T15:43:14.088Z,2.99
2023-05-05T15:44:14.134Z,3.63
2023-05-05T15:45:14.177Z,3.05
2023-05-05T15:46:14.217Z,3.27
2023-05-05T15:47:14.192Z,3.31
2023-05-05T15:48:14.212Z,3.53
2023-05-05T15:49:14.201Z,3.47
2023-05-05T15:50:14.269Z,3.58
2023-05-05T15:51:14.243Z,3.53
2023-05-05T15:52:14.258Z,3.05
2023-05-05T15:53:14.250Z,3.34
2023-05-05T15:54:14.294Z,3.02
2023-05-05T15:55:14.313Z,3.28
2023-05-05T15:56:14.275Z,3.70
2023-05-05T15:57:14.377Z,3.45
2023-05-05T15:58:14.321Z,3.28
2023-05-05T15:59:14.333Z,3.10
2023-05-05T16:00:14.363Z,3.17
2023-05-05T16:01:14.355Z,3.01
2023-05-05T16:02:14.385Z,3.28
2023-05-05T16:03:14.449Z,3.08
2023-05-05T16:04:14.404Z,3.43
2023-05-05T16:05:14.447Z,3.19
2023-05-05T16:06:14.434Z,3.09
2023-05-05T16:07:14.440Z,3.39
2023-05-05T16:08:14.479Z,3.53
2023-05-05T16:09:14.520Z,3.18
2023-05-05T16:10:14.547Z,3.57
2023-05-05T16:11:14.504Z,2.87
2023-05-05T16:12:14.551Z,3.32
2023-05-05T16:13:14.956Z,3.03
2023-05-05T16:14:14.628Z,3.22
2023-05-05T16:15:14.635Z,3.58
2023-05-05T16:16:14.673Z,2.68
2023-05-05T16:17:14.683Z,3.62
2023-05-05T16:18:14.674Z,3.65
2023-05-05T16:19:14.689Z,3.28
2023-05-05T16:20:14.743Z,3.33
2023-05-05T16:21:15.083Z,3.57
2023-05-05T16:22:14.737Z,3.02
2023-05-05T16:23:14.770Z,3.06
2023-05-05T16:24:14.769Z,3.13
2023-05-05T16:25:14.808Z,3.08
2023-05-05T16:26:14.883Z,3.21
2023-05-05T16:27:14.871Z,3.17
2023-05-05T16:28:14.920Z,3.22
2023-05-05T16:29:14.982Z,2.97
2023-05-05T16:30:14.957Z,3.05
2023-05-05T16:31:14.987Z,3.48
2023-05-05T16:32:14.966Z,3.26
2023-05-05T16:33:15.017Z,3.92
2023-05-05T16:34:15.018Z,3.38
2023-05-05T16:35:15.375Z,3.18
2023-05-05T16:36:15.094Z,3.09
2023-05-05T16:37:15.076Z,3.34
2023-05-05T16:38:15.094Z,3.42
2023-05-05T16:39:15.127Z,2.73
2023-05-05T16:40:15.183Z,3.06
2023-05-05T16:41:15.310Z,3.15
2023-05-05T16:42:15.274Z,3.08
2023-05-05T16:43:15.266Z,3.07
2023-05-05T16:44:15.317Z,3.23
2023-05-05T16:45:15.599Z,2.65
2023-05-05T16:46:15.386Z,2.93
2023-05-05T16:47:15.358Z,2.98
2023-05-05T16:48:15.351Z,3.72
2023-05-05T16:49:15.388Z,3.58
2023-05-05T16:50:15.427Z,3.46
2023-05-05T16:51:15.456Z,3.44
2023-05-05T16:52:15.503Z,3.48
2023-05-05T16:53:15.506Z,3.58
2023-05-05T16:54:15.549Z,2.92
2023-05-05T16:55:15.595Z,2.52
2023-05-05T16:56:15.620Z,3.37
2023-05-05T16:57:15.615Z,3.25
2023-05-05T16:58:15.646Z,3.46
2023-05-05T16:59:15.690Z,3.29
2023-05-05T17:00:15.742Z,3.06
